LFRM/LME METAR and TAF weather

Enter ICAO airport designator
Station Type Date Time Source
LFRM METAR 2020/01/17 22:30 UTC NOAA

LFRM 172230Z AUTO 21004KT 190V250 CAVOK 05/02 Q1026


Station Type Date Time Source
LFRM Decoded METAR 2020/01/17 22:30 UTC NOAA

Le Mans, France (LFRM) 47-56N 000-12E 52M
Jan 17, 2020 - 05:30 PM EST / 2020.01.17 2230 UTC
Wind: from the SSW (210 degrees) at 5 MPH (4 KT) (direction variable):0
Visibility: greater than 7 mile(s):0
Temperature: 41 F (5 C)
Dew Point: 35 F (2 C)
Relative Humidity: 80%
Pressure (altimeter): 30.30 in. Hg (1026 hPa)
ob: LFRM 172230Z AUTO 21004KT 190V250 CAVOK 05/02 Q1026
cycle: 22

Station Type Date Time Source
LFRM TAF 2020/01/17 19:08 UTC NOAA

TAF LFRM 171900Z 1719/1812 CNL

Example: see airport list